IBE331 LEMG-LEIB
Flight info
| Callsign | IBE331 |
|---|---|
| Flight time | N/A |
| Altitude | 36000 |
| Route | RIXUR DCT UNTOS DCT ROLAS DCT TOSGA DCT RESTU DCT ALT DCT SUMMO DCT MITOS DCT BRUNO N851 RUXET |
| Aircraft | A320/M-SDE3FGHIRWY/LB1 |
Departure
| Time | N/A |
|---|---|
| Airport | Málaga-Costa del Sol Airport (LEMG) |
Arrival
| Time | 2026-05-04 12:33 |
|---|---|
| Airport | Ibiza Airport (LEIB) |
| Time | Latitude | Longitude | Altitude | Speed | Heading |
|---|---|---|---|---|---|
| 2026-05-04 12:11 | 38.55888 | 0.32791 | 34537 ft | 527 kts | 70° |
| 2026-05-04 12:11 | 38.57278 | 0.37124 | 33888 ft | 528 kts | 70° |
| 2026-05-04 12:11 | 38.58670 | 0.41475 | 33134 ft | 528 kts | 70° |
| 2026-05-04 12:12 | 38.60055 | 0.45825 | 32425 ft | 529 kts | 70° |
| 2026-05-04 12:12 | 38.61434 | 0.50179 | 31737 ft | 530 kts | 70° |
| 2026-05-04 12:12 | 38.62819 | 0.54560 | 31064 ft | 532 kts | 70° |
| 2026-05-04 12:12 | 38.64202 | 0.58958 | 30405 ft | 533 kts | 70° |
| 2026-05-04 12:13 | 38.65579 | 0.63378 | 29743 ft | 534 kts | 72° |
| 2026-05-04 12:14 | 38.69006 | 0.96158 | 24861 ft | 537 kts | 88° |
| 2026-05-04 12:15 | 38.69354 | 1.00928 | 24235 ft | 538 kts | 88° |
| 2026-05-04 12:15 | 38.69698 | 1.05680 | 23623 ft | 534 kts | 88° |
| 2026-05-04 12:15 | 38.70039 | 1.10405 | 22908 ft | 530 kts | 88° |
| 2026-05-04 12:15 | 38.70377 | 1.15028 | 22186 ft | 525 kts | 86° |
| 2026-05-04 12:16 | 38.71053 | 1.19601 | 21490 ft | 521 kts | 76° |
| 2026-05-04 12:16 | 38.72311 | 1.23937 | 20811 ft | 516 kts | 65° |
| 2026-05-04 12:16 | 38.73961 | 1.27977 | 20163 ft | 508 kts | 62° |
| 2026-05-04 12:16 | 38.75609 | 1.31932 | 19579 ft | 500 kts | 62° |
| 2026-05-04 12:17 | 38.77231 | 1.35833 | 19012 ft | 492 kts | 62° |
| 2026-05-04 12:17 | 38.78826 | 1.39680 | 18456 ft | 485 kts | 62° |
| 2026-05-04 12:17 | 38.80393 | 1.43474 | 17841 ft | 478 kts | 62° |
| 2026-05-04 12:17 | 38.81937 | 1.47212 | 17210 ft | 472 kts | 62° |
| 2026-05-04 12:18 | 38.83463 | 1.50909 | 16596 ft | 465 kts | 62° |
| 2026-05-04 12:18 | 38.84969 | 1.54559 | 15980 ft | 459 kts | 62° |
| 2026-05-04 12:18 | 38.86454 | 1.58156 | 15383 ft | 453 kts | 62° |
| 2026-05-04 12:18 | 38.87922 | 1.61712 | 14751 ft | 449 kts | 62° |
| 2026-05-04 12:19 | 38.89359 | 1.65201 | 14181 ft | 432 kts | 62° |
| 2026-05-04 12:19 | 38.90366 | 1.67654 | 13856 ft | 414 kts | 62° |
| 2026-05-04 12:19 | 38.91675 | 1.70848 | 13365 ft | 393 kts | 62° |
| 2026-05-04 12:19 | 38.92905 | 1.73846 | 12870 ft | 375 kts | 62° |
| 2026-05-04 12:20 | 38.94097 | 1.76750 | 12393 ft | 360 kts | 62° |
| 2026-05-04 12:20 | 38.95251 | 1.79536 | 11902 ft | 347 kts | 62° |
| 2026-05-04 12:20 | 38.96372 | 1.82227 | 11438 ft | 336 kts | 62° |
| 2026-05-04 12:20 | 38.97463 | 1.84838 | 10973 ft | 327 kts | 62° |
| 2026-05-04 12:21 | 38.98526 | 1.87373 | 10514 ft | 318 kts | 62° |
| 2026-05-04 12:21 | 38.99567 | 1.89840 | 10068 ft | 310 kts | 62° |
| 2026-05-04 12:21 | 39.00591 | 1.92252 | 9584 ft | 303 kts | 62° |
| 2026-05-04 12:21 | 39.01598 | 1.94604 | 9090 ft | 297 kts | 62° |
| 2026-05-04 12:22 | 39.02590 | 1.96899 | 8607 ft | 290 kts | 60° |
| 2026-05-04 12:22 | 39.03923 | 1.98836 | 8131 ft | 292 kts | 33° |
| 2026-05-04 12:22 | 39.05781 | 1.99830 | 7662 ft | 289 kts | 5° |
| 2026-05-04 12:22 | 39.07727 | 1.99669 | 7203 ft | 282 kts | 337° |
| 2026-05-04 12:23 | 39.09330 | 1.98406 | 6994 ft | 261 kts | 307° |
| 2026-05-04 12:23 | 39.10152 | 1.96474 | 6986 ft | 242 kts | 277° |
| 2026-05-04 12:23 | 39.10087 | 1.94367 | 6992 ft | 235 kts | 251° |
| 2026-05-04 12:23 | 39.09565 | 1.92378 | 6990 ft | 234 kts | 244° |
| 2026-05-04 12:24 | 39.08880 | 1.90476 | 6992 ft | 234 kts | 243° |
| 2026-05-04 12:24 | 39.08412 | 1.89221 | 6990 ft | 235 kts | 243° |
| 2026-05-04 12:24 | 39.07696 | 1.87325 | 6986 ft | 235 kts | 242° |
| 2026-05-04 12:24 | 39.06978 | 1.85434 | 6988 ft | 235 kts | 242° |
| 2026-05-04 12:25 | 39.06260 | 1.83543 | 6991 ft | 235 kts | 242° |
| 2026-05-04 12:25 | 39.05542 | 1.81652 | 6986 ft | 235 kts | 241° |
| 2026-05-04 12:25 | 39.04763 | 1.79800 | 6986 ft | 235 kts | 240° |
| 2026-05-04 12:25 | 39.03987 | 1.77950 | 6987 ft | 235 kts | 240° |
| 2026-05-04 12:26 | 39.03225 | 1.76092 | 6967 ft | 235 kts | 241° |
| 2026-05-04 12:26 | 39.02450 | 1.74195 | 6452 ft | 241 kts | 241° |
| 2026-05-04 12:26 | 39.01676 | 1.72298 | 5914 ft | 237 kts | 240° |
| 2026-05-04 12:26 | 39.00925 | 1.70462 | 5401 ft | 232 kts | 240° |
| 2026-05-04 12:27 | 39.00195 | 1.68680 | 5118 ft | 220 kts | 240° |
| 2026-05-04 12:27 | 38.99497 | 1.66976 | 4848 ft | 212 kts | 240° |
| 2026-05-04 12:27 | 38.98809 | 1.65298 | 4562 ft | 212 kts | 240° |
| 2026-05-04 12:27 | 38.98122 | 1.63623 | 4266 ft | 211 kts | 240° |
| 2026-05-04 12:28 | 38.97447 | 1.61977 | 3995 ft | 210 kts | 240° |
| 2026-05-04 12:28 | 38.96766 | 1.60319 | 3726 ft | 209 kts | 240° |
| 2026-05-04 12:28 | 38.96104 | 1.58706 | 3449 ft | 198 kts | 240° |
| 2026-05-04 12:28 | 38.95478 | 1.57181 | 3196 ft | 188 kts | 240° |
| 2026-05-04 12:29 | 38.94888 | 1.55746 | 2964 ft | 174 kts | 240° |
| 2026-05-04 12:29 | 38.94345 | 1.54424 | 2747 ft | 161 kts | 239° |
| 2026-05-04 12:29 | 38.93842 | 1.53201 | 2535 ft | 147 kts | 239° |
| 2026-05-04 12:29 | 38.93379 | 1.52078 | 2355 ft | 139 kts | 239° |
| 2026-05-04 12:30 | 38.92941 | 1.51015 | 2169 ft | 136 kts | 240° |
| 2026-05-04 12:30 | 38.92480 | 1.49898 | 1986 ft | 144 kts | 239° |
| 2026-05-04 12:30 | 38.92009 | 1.48755 | 1790 ft | 144 kts | 239° |
| 2026-05-04 12:30 | 38.91549 | 1.47638 | 1591 ft | 137 kts | 238° |
| 2026-05-04 12:31 | 38.91109 | 1.46571 | 1408 ft | 134 kts | 240° |
| 2026-05-04 12:31 | 38.90678 | 1.45528 | 1237 ft | 131 kts | 240° |
| 2026-05-04 12:31 | 38.90246 | 1.44488 | 1065 ft | 131 kts | 237° |
| 2026-05-04 12:31 | 38.89823 | 1.43457 | 909 ft | 130 kts | 242° |
| 2026-05-04 12:32 | 38.89405 | 1.42419 | 736 ft | 132 kts | 240° |
| 2026-05-04 12:32 | 38.88558 | 1.40380 | 326 ft | 126 kts | 242° |
| 2026-05-04 12:32 | 38.88139 | 1.39382 | 183 ft | 131 kts | 239° |
| 2026-05-04 12:33 | 38.87711 | 1.38342 | 33 ft | 129 kts | 240° |
| 2026-05-04 12:33 | 38.87348 | 1.37474 | 10 ft | 86 kts | 243° |
| 2026-05-04 12:33 | 38.87167 | 1.37031 | 10 ft | 35 kts | 242° |
| 2026-05-04 12:33 | 38.87106 | 1.36829 | 10 ft | 22 kts | 265° |
| 2026-05-04 12:34 | 38.87099 | 1.36664 | 8 ft | 13 kts | 271° |
| 2026-05-04 12:34 | 38.87108 | 1.36563 | 8 ft | 7 kts | 292° |
| 2026-05-04 12:34 | 38.87146 | 1.36545 | 8 ft | 6 kts | 15° |
| 2026-05-04 12:34 | 38.87181 | 1.36606 | 8 ft | 13 kts | 63° |
| 2026-05-04 12:35 | 38.87221 | 1.36707 | 10 ft | 12 kts | 62° |
| 2026-05-04 12:35 | 38.87259 | 1.36799 | 9 ft | 11 kts | 62° |
| 2026-05-04 12:35 | 38.87296 | 1.36861 | 9 ft | 7 kts | 13° |
| 2026-05-04 12:35 | 38.87340 | 1.36837 | 9 ft | 6 kts | 329° |
| 2026-05-04 12:36 | 38.87376 | 1.36815 | 8 ft | 5 kts | 334° |
| 2026-05-04 12:36 | 38.87408 | 1.36795 | 8 ft | 5 kts | 334° |
| 2026-05-04 12:36 | 38.87440 | 1.36810 | 8 ft | 6 kts | 46° |
| 2026-05-04 12:36 | 38.87463 | 1.36862 | 8 ft | 7 kts | 62° |
| 2026-05-04 12:37 | 38.87486 | 1.36917 | 8 ft | 6 kts | 62° |
| 2026-05-04 12:37 | 38.87500 | 1.36949 | 24 ft | 2 kts | 51° |
| 2026-05-04 12:37 | 38.87515 | 1.36949 | -3 ft | 3 kts | 350° |
| 2026-05-04 12:37 | 38.87531 | 1.36939 | 10 ft | 2 kts | 333° |
| 2026-05-04 12:38 | 38.87543 | 1.36931 | 8 ft | 2 kts | 332° |
| 2026-05-04 12:38 | 38.87551 | 1.36926 | 8 ft | 1 kts | 332° |
| 2026-05-04 12:38 | 38.87558 | 1.36921 | 8 ft | 1 kts | 332° |
| 2026-05-04 12:38 | 38.87563 | 1.36918 | 8 ft | 0 kts | 332° |